createdAt,value
2019-05-20T00:02:24.563Z,14.50
2019-05-20T00:04:45.621Z,14.50
2019-05-20T00:07:14.360Z,14.40
2019-05-20T00:09:43.370Z,14.20
2019-05-20T00:12:12.401Z,14.20
2019-05-20T00:14:41.174Z,14.20
2019-05-20T00:17:10.415Z,14.20
2019-05-20T00:19:39.461Z,14.10
2019-05-20T00:22:08.222Z,14.10
2019-05-20T00:24:37.239Z,14.00
2019-05-20T00:27:05.991Z,14.00
2019-05-20T00:29:34.993Z,13.90
2019-05-20T00:32:03.834Z,13.80
2019-05-20T00:34:35.068Z,13.80
2019-05-20T00:37:03.070Z,13.70
2019-05-20T00:39:31.841Z,13.80
2019-05-20T00:42:00.934Z,13.80
2019-05-20T00:44:29.721Z,13.70
2019-05-20T00:46:58.615Z,13.70
2019-05-20T00:49:27.395Z,13.60
2019-05-20T00:51:56.310Z,13.50
2019-05-20T00:54:25.194Z,13.30
2019-05-20T00:56:54.538Z,13.30
2019-05-20T00:59:23.290Z,13.30
2019-05-20T01:01:52.286Z,13.30
2019-05-20T01:04:21.130Z,13.30
2019-05-20T01:06:50.145Z,13.20
2019-05-20T01:09:19.296Z,13.20
2019-05-20T01:11:48.093Z,13.20
2019-05-20T01:14:17.151Z,13.10
2019-05-20T01:16:46.133Z,13.00
2019-05-20T01:19:14.923Z,13.10
2019-05-20T01:21:44.242Z,13.10
2019-05-20T01:24:13.080Z,13.10
2019-05-20T01:26:41.842Z,13.00
2019-05-20T01:29:10.577Z,13.00
2019-05-20T01:31:39.716Z,13.00
2019-05-20T01:34:08.524Z,13.00
2019-05-20T01:36:37.303Z,13.00
2019-05-20T01:39:07.145Z,12.90
2019-05-20T01:41:35.926Z,12.90
2019-05-20T01:44:04.684Z,12.90
2019-05-20T01:46:33.782Z,12.90
2019-05-20T01:49:02.762Z,12.90
2019-05-20T01:51:32.023Z,12.90
2019-05-20T01:54:00.993Z,12.80
2019-05-20T01:56:29.781Z,12.80
2019-05-20T01:58:59.059Z,12.70
2019-05-20T02:01:27.838Z,12.60
2019-05-20T02:03:56.598Z,12.60
2019-05-20T02:06:25.615Z,12.50
2019-05-20T02:08:55.859Z,12.60
2019-05-20T02:11:25.106Z,12.50
2019-05-20T02:14:01.347Z,12.50
2019-05-20T02:16:30.726Z,12.50
2019-05-20T02:18:59.526Z,12.50
2019-05-20T02:21:28.342Z,12.40
2019-05-20T02:23:57.117Z,12.40
2019-05-20T02:26:26.378Z,12.40
2019-05-20T02:28:55.609Z,12.40
2019-05-20T02:31:24.703Z,12.30
2019-05-20T02:33:53.932Z,12.30
2019-05-20T02:36:22.671Z,12.30
2019-05-20T02:38:51.542Z,12.20
2019-05-20T02:41:20.675Z,12.10
2019-05-20T02:43:50.266Z,12.20
2019-05-20T02:46:19.208Z,12.10
2019-05-20T02:48:48.567Z,12.10
2019-05-20T02:51:19.888Z,12.10
2019-05-20T02:53:48.753Z,12.10
2019-05-20T02:56:17.500Z,12.10
2019-05-20T02:58:46.510Z,12.00
2019-05-20T03:01:15.362Z,12.00
2019-05-20T03:03:44.368Z,12.00
2019-05-20T03:06:13.318Z,12.00
2019-05-20T03:08:42.592Z,11.90
2019-05-20T03:11:11.463Z,12.00
2019-05-20T03:13:40.265Z,12.00
2019-05-20T03:16:09.109Z,12.00
2019-05-20T03:18:38.107Z,12.00
2019-05-20T03:21:06.891Z,12.00
2019-05-20T03:23:35.662Z,12.00
2019-05-20T03:26:04.427Z,12.00
2019-05-20T03:28:33.293Z,11.90
2019-05-20T03:31:02.293Z,12.00
2019-05-20T03:33:31.392Z,12.00
2019-05-20T03:36:00.143Z,12.00
2019-05-20T03:38:29.150Z,12.00
2019-05-20T03:40:58.407Z,12.00
2019-05-20T03:43:27.683Z,11.90
2019-05-20T03:45:56.983Z,11.80
2019-05-20T03:48:25.793Z,11.80
2019-05-20T03:50:54.535Z,11.80
2019-05-20T03:53:23.416Z,11.70
2019-05-20T03:55:52.172Z,11.70
2019-05-20T03:58:21.167Z,11.70
2019-05-20T04:00:50.032Z,11.70
2019-05-20T04:03:19.046Z,11.60
2019-05-20T04:05:47.843Z,11.60
2019-05-20T04:08:16.690Z,11.70
2019-05-20T04:10:45.523Z,11.70
2019-05-20T04:13:14.362Z,11.60
2019-05-20T04:15:43.410Z,11.60
2019-05-20T04:18:12.491Z,11.60
2019-05-20T04:20:41.819Z,11.60
2019-05-20T04:23:10.581Z,11.60
2019-05-20T04:25:39.342Z,11.60
2019-05-20T04:28:08.496Z,11.60
2019-05-20T04:30:37.514Z,11.60
2019-05-20T04:33:06.864Z,11.60
2019-05-20T04:35:36.665Z,11.60
2019-05-20T04:38:05.847Z,11.60
2019-05-20T04:40:35.020Z,11.70
2019-05-20T04:43:04.275Z,11.70
2019-05-20T04:45:33.264Z,11.80
2019-05-20T04:48:02.262Z,11.80
2019-05-20T04:50:32.076Z,11.90
2019-05-20T04:53:01.586Z,12.00
2019-05-20T04:55:30.660Z,12.00
2019-05-20T04:57:59.495Z,12.10
2019-05-20T05:00:53.322Z,12.10
2019-05-20T05:03:22.523Z,12.20
2019-05-20T05:05:53.025Z,12.30
2019-05-20T05:08:22.676Z,12.40
2019-05-20T05:10:51.869Z,12.40
2019-05-20T05:13:21.312Z,12.60
2019-05-20T05:15:50.376Z,12.60
2019-05-20T05:18:19.290Z,12.70
2019-05-20T05:20:48.351Z,12.80
2019-05-20T05:23:17.426Z,12.90
2019-05-20T05:25:46.724Z,12.90
2019-05-20T05:28:15.546Z,13.00
2019-05-20T05:30:45.951Z,13.10
2019-05-20T05:33:14.695Z,13.20
2019-05-20T05:35:52.842Z,13.40
2019-05-20T05:38:14.389Z,13.50
2019-05-20T05:40:44.496Z,13.50
2019-05-20T05:43:13.551Z,13.60
2019-05-20T05:45:44.089Z,13.70
2019-05-20T05:48:12.831Z,13.80
2019-05-20T05:50:42.622Z,13.70
2019-05-20T05:53:11.641Z,13.80
2019-05-20T05:55:40.458Z,13.80
2019-05-20T05:58:09.602Z,13.90
2019-05-20T06:00:38.858Z,13.90
2019-05-20T06:03:07.702Z,13.90
2019-05-20T06:05:36.515Z,13.80
2019-05-20T06:08:05.471Z,13.70
2019-05-20T06:10:35.937Z,13.70
2019-05-20T06:13:05.173Z,13.70
2019-05-20T06:15:34.134Z,13.70
2019-05-20T06:18:03.162Z,13.80
2019-05-20T06:20:31.999Z,13.90
2019-05-20T06:23:00.842Z,13.90
2019-05-20T06:25:29.596Z,14.00
2019-05-20T06:27:58.330Z,14.00
2019-05-20T06:30:37.869Z,14.10
2019-05-20T06:33:06.680Z,14.00
2019-05-20T06:35:35.926Z,14.00
2019-05-20T06:38:12.981Z,14.10
2019-05-20T06:40:50.790Z,14.10
2019-05-20T06:43:19.944Z,14.00
2019-05-20T06:45:48.678Z,14.10
2019-05-20T06:48:17.688Z,14.10
2019-05-20T06:50:47.031Z,14.10
2019-05-20T06:53:16.118Z,14.20
2019-05-20T06:55:45.111Z,14.20
2019-05-20T06:58:14.315Z,14.30
2019-05-20T07:00:44.949Z,14.30
2019-05-20T07:03:14.316Z,14.40
2019-05-20T07:05:43.170Z,14.40
2019-05-20T07:08:11.898Z,14.30
2019-05-20T07:10:40.889Z,14.30
2019-05-20T07:13:09.691Z,14.30
2019-05-20T07:15:38.463Z,14.30
2019-05-20T07:18:07.277Z,14.30
2019-05-20T07:20:36.526Z,14.20
2019-05-20T07:23:05.359Z,14.10
2019-05-20T07:25:34.104Z,14.10
2019-05-20T07:28:02.855Z,14.10
2019-05-20T07:30:31.889Z,14.10
2019-05-20T07:33:00.715Z,14.10
2019-05-20T07:35:31.136Z,14.10
2019-05-20T07:38:00.444Z,14.20
2019-05-20T07:40:33.105Z,14.20
2019-05-20T07:43:03.345Z,14.20
2019-05-20T07:45:34.884Z,14.20
2019-05-20T07:48:05.198Z,14.20
2019-05-20T07:50:39.621Z,14.30
2019-05-20T07:53:09.989Z,14.20
2019-05-20T07:55:44.580Z,14.30
2019-05-20T07:58:16.447Z,14.30
2019-05-20T08:00:45.534Z,14.30
2019-05-20T08:03:14.543Z,14.30
2019-05-20T08:05:43.546Z,14.30
2019-05-20T08:08:12.379Z,14.20
2019-05-20T08:10:42.671Z,14.10
2019-05-20T08:13:11.577Z,14.20
2019-05-20T08:15:40.319Z,14.10
2019-05-20T08:18:09.161Z,14.10
2019-05-20T08:20:37.899Z,14.10
2019-05-20T08:23:06.935Z,14.10
2019-05-20T08:25:36.287Z,14.10
2019-05-20T08:28:05.098Z,14.20
2019-05-20T08:30:36.257Z,14.20
2019-05-20T08:33:05.963Z,14.20
2019-05-20T08:35:34.919Z,14.20
2019-05-20T08:38:04.177Z,14.20
2019-05-20T08:40:33.063Z,14.20
2019-05-20T08:43:01.875Z,14.20
2019-05-20T08:45:33.789Z,14.30
2019-05-20T08:48:03.612Z,14.30
2019-05-20T08:50:32.647Z,14.40
2019-05-20T08:53:01.494Z,14.50
2019-05-20T08:55:30.445Z,14.50
2019-05-20T08:57:59.186Z,14.60
2019-05-20T09:00:28.592Z,14.60
2019-05-20T09:02:57.571Z,14.60
2019-05-20T09:05:28.294Z,14.50
2019-05-20T09:08:03.069Z,14.50
2019-05-20T09:10:27.486Z,14.50
2019-05-20T09:12:56.235Z,14.50
2019-05-20T09:15:24.980Z,14.50
2019-05-20T09:17:54.084Z,14.50
2019-05-20T09:20:22.933Z,14.50
2019-05-20T09:22:52.160Z,14.50
2019-05-20T09:25:30.387Z,14.60
2019-05-20T09:27:59.505Z,14.60
2019-05-20T09:30:28.470Z,14.70
2019-05-20T09:32:57.450Z,14.70
2019-05-20T09:35:26.320Z,14.70
2019-05-20T09:37:55.150Z,14.60
2019-05-20T09:40:38.650Z,14.60
2019-05-20T09:43:08.256Z,14.60
2019-05-20T09:45:37.257Z,14.50
2019-05-20T09:48:06.961Z,14.50
2019-05-20T09:50:36.101Z,14.50
2019-05-20T09:53:07.213Z,14.50
2019-05-20T09:55:36.184Z,14.60
2019-05-20T09:58:05.463Z,14.60
2019-05-20T10:00:34.524Z,14.60
2019-05-20T10:03:03.640Z,14.60
2019-05-20T10:05:32.639Z,14.60
2019-05-20T10:08:01.470Z,14.60
2019-05-20T10:10:30.381Z,14.60
2019-05-20T10:12:59.610Z,14.60
2019-05-20T10:15:29.232Z,14.60
2019-05-20T10:17:58.254Z,14.60
2019-05-20T10:20:27.265Z,14.60
2019-05-20T10:22:56.291Z,14.60
2019-05-20T10:25:25.120Z,14.60
2019-05-20T10:27:57.355Z,14.60
2019-05-20T10:30:24.552Z,14.60
2019-05-20T10:32:53.607Z,14.70
2019-05-20T10:35:22.507Z,14.70
2019-05-20T10:37:51.262Z,14.80
2019-05-20T10:40:20.200Z,14.90
2019-05-20T10:42:49.002Z,14.90
2019-05-20T10:45:17.978Z,15.00
2019-05-20T10:47:47.090Z,15.10
2019-05-20T10:50:16.058Z,15.20
2019-05-20T10:52:45.038Z,15.20
2019-05-20T10:55:13.906Z,15.30
2019-05-20T10:57:42.923Z,15.30
2019-05-20T11:00:12.393Z,15.40
2019-05-20T11:02:41.391Z,15.50
2019-05-20T11:05:10.587Z,15.60
2019-05-20T11:07:39.457Z,15.60
2019-05-20T11:10:08.711Z,15.60
2019-05-20T11:12:38.505Z,15.70
2019-05-20T11:15:09.004Z,15.80
2019-05-20T11:17:38.331Z,15.80
2019-05-20T11:20:07.952Z,15.80
2019-05-20T11:22:36.715Z,15.80
2019-05-20T11:25:05.946Z,15.80
2019-05-20T11:27:35.033Z,15.80
2019-05-20T11:30:05.050Z,15.80
2019-05-20T11:32:34.129Z,15.80
2019-05-20T11:35:03.040Z,15.90
2019-05-20T11:37:31.860Z,16.00
2019-05-20T11:40:00.877Z,16.10
2019-05-20T11:42:31.222Z,16.20
2019-05-20T11:45:00.025Z,16.10
2019-05-20T11:47:28.964Z,16.20
2019-05-20T11:49:58.013Z,16.30
2019-05-20T11:52:27.078Z,16.40
2019-05-20T11:54:55.836Z,16.50
2019-05-20T11:57:24.718Z,16.60
2019-05-20T11:59:53.774Z,16.60
2019-05-20T12:02:23.747Z,16.70
2019-05-20T12:04:52.652Z,16.60
2019-05-20T12:07:21.503Z,16.60
2019-05-20T12:09:50.528Z,16.50
2019-05-20T12:12:19.422Z,16.50
2019-05-20T12:14:48.316Z,16.60
2019-05-20T12:17:17.104Z,16.60
2019-05-20T12:19:46.302Z,16.80
2019-05-20T12:22:18.158Z,16.80
2019-05-20T12:24:47.195Z,16.70
2019-05-20T12:27:16.239Z,16.80
2019-05-20T12:29:45.213Z,16.90
2019-05-20T12:32:14.271Z,16.90
2019-05-20T12:34:43.363Z,16.90
2019-05-20T12:37:12.509Z,17.00
2019-05-20T12:39:41.694Z,16.90
2019-05-20T12:42:10.990Z,16.80
2019-05-20T12:44:40.212Z,16.80
2019-05-20T12:47:09.002Z,16.70
2019-05-20T12:49:37.833Z,16.70
2019-05-20T12:52:06.807Z,16.70
2019-05-20T12:54:35.655Z,16.70
2019-05-20T12:57:04.799Z,16.70
2019-05-20T12:59:33.923Z,16.80
2019-05-20T13:02:02.658Z,16.90
2019-05-20T13:04:31.678Z,16.90
2019-05-20T13:07:00.447Z,17.00
2019-05-20T13:09:29.174Z,17.00
2019-05-20T13:11:58.434Z,17.10
2019-05-20T13:14:27.163Z,17.10
2019-05-20T13:16:56.162Z,17.10
2019-05-20T13:19:25.167Z,17.10
2019-05-20T13:21:53.913Z,17.10
2019-05-20T13:24:22.945Z,17.20
2019-05-20T13:26:52.020Z,17.30
2019-05-20T13:29:21.003Z,17.40
2019-05-20T13:31:49.842Z,17.50
2019-05-20T13:34:18.844Z,17.60
2019-05-20T13:36:47.888Z,17.70
2019-05-20T13:39:16.858Z,17.80
2019-05-20T13:41:45.882Z,17.90
2019-05-20T13:44:14.874Z,17.90
2019-05-20T13:46:44.625Z,17.90
2019-05-20T13:49:13.552Z,17.80
2019-05-20T13:51:42.477Z,17.80
2019-05-20T13:54:11.862Z,17.80
2019-05-20T13:56:41.190Z,17.80
2019-05-20T13:59:09.972Z,17.80
2019-05-20T14:01:38.797Z,17.80
2019-05-20T14:04:07.651Z,17.70
2019-05-20T14:06:36.661Z,17.60
2019-05-20T14:09:07.590Z,17.50
2019-05-20T14:11:37.161Z,17.50
2019-05-20T14:14:06.179Z,17.40
2019-05-20T14:16:35.331Z,17.50
2019-05-20T14:19:04.622Z,17.50
2019-05-20T14:21:33.642Z,17.60
2019-05-20T14:24:02.751Z,17.60
2019-05-20T14:26:32.039Z,17.60
2019-05-20T14:29:01.315Z,17.60
2019-05-20T14:31:31.330Z,17.60
2019-05-20T14:34:00.082Z,17.60
2019-05-20T14:36:39.288Z,17.50
2019-05-20T14:38:59.919Z,17.50
2019-05-20T14:41:28.940Z,17.40
2019-05-20T14:43:57.967Z,17.40
2019-05-20T14:46:27.226Z,17.40
2019-05-20T14:49:02.135Z,17.40
2019-05-20T14:51:28.617Z,17.40
2019-05-20T14:53:57.400Z,17.30
2019-05-20T14:56:26.678Z,17.30
2019-05-20T14:58:55.898Z,17.30
2019-05-20T15:01:24.998Z,17.40
2019-05-20T15:03:54.845Z,17.50
2019-05-20T15:06:23.850Z,17.50
2019-05-20T15:08:52.618Z,17.50
2019-05-20T15:11:37.013Z,17.60
2019-05-20T15:13:53.558Z,17.70
2019-05-20T15:16:22.378Z,17.70
2019-05-20T15:18:51.404Z,17.70
2019-05-20T15:21:20.421Z,17.70
2019-05-20T15:23:49.218Z,17.70
2019-05-20T15:26:18.678Z,17.70
2019-05-20T15:28:47.459Z,17.80
2019-05-20T15:31:16.238Z,17.70
2019-05-20T15:33:45.490Z,17.70
2019-05-20T15:36:14.342Z,17.80
2019-05-20T15:38:43.219Z,17.80
2019-05-20T15:41:11.972Z,17.80
2019-05-20T15:43:40.975Z,17.80
2019-05-20T15:46:09.990Z,17.80
2019-05-20T15:48:39.122Z,17.80
2019-05-20T15:51:07.974Z,17.80
2019-05-20T15:53:36.839Z,17.80
2019-05-20T15:56:06.248Z,17.80
2019-05-20T15:58:35.506Z,17.70
2019-05-20T16:01:04.384Z,17.70
2019-05-20T16:03:33.686Z,17.80
2019-05-20T16:06:02.679Z,17.80
2019-05-20T16:08:31.468Z,17.70
2019-05-20T16:11:00.734Z,17.70
2019-05-20T16:13:29.732Z,17.70
2019-05-20T16:15:59.175Z,17.70
2019-05-20T16:18:28.686Z,17.70
2019-05-20T16:20:57.853Z,17.60
2019-05-20T16:23:26.777Z,17.60
2019-05-20T16:25:55.774Z,17.60
2019-05-20T16:28:25.005Z,17.70
2019-05-20T16:30:54.103Z,17.70
2019-05-20T16:33:23.411Z,17.70
2019-05-20T16:35:52.936Z,17.70
2019-05-20T16:38:21.963Z,17.60
2019-05-20T16:40:51.063Z,17.60
2019-05-20T16:43:19.874Z,17.60
2019-05-20T16:45:48.872Z,17.60
2019-05-20T16:48:17.702Z,17.60
2019-05-20T16:50:46.450Z,17.60
2019-05-20T16:53:15.231Z,17.50
2019-05-20T16:55:43.971Z,17.50
2019-05-20T16:58:12.715Z,17.40
2019-05-20T17:00:41.895Z,17.50
2019-05-20T17:03:11.169Z,17.50
2019-05-20T17:05:40.261Z,17.50
2019-05-20T17:08:09.319Z,17.30
2019-05-20T17:10:38.111Z,17.00
2019-05-20T17:13:07.236Z,16.80
2019-05-20T17:15:37.606Z,16.60
2019-05-20T17:18:06.830Z,16.50
2019-05-20T17:20:35.692Z,16.40
2019-05-20T17:23:04.490Z,16.30
2019-05-20T17:25:33.555Z,16.20
2019-05-20T17:28:02.343Z,16.20
2019-05-20T17:30:44.498Z,16.20
2019-05-20T17:33:01.954Z,16.20
2019-05-20T17:35:30.929Z,15.90
2019-05-20T17:38:00.245Z,15.90
2019-05-20T17:40:29.143Z,15.80
2019-05-20T17:42:57.971Z,15.70
2019-05-20T17:45:26.783Z,15.50
2019-05-20T17:47:55.866Z,15.30
2019-05-20T17:50:25.087Z,15.20
2019-05-20T17:52:53.840Z,15.20
2019-05-20T17:55:22.773Z,15.30
2019-05-20T17:57:51.992Z,15.30
2019-05-20T18:00:22.333Z,15.30
2019-05-20T18:02:51.147Z,15.40
2019-05-20T18:05:20.302Z,15.40
2019-05-20T18:07:49.163Z,15.40
2019-05-20T18:10:25.393Z,15.40
2019-05-20T18:12:54.481Z,15.40
2019-05-20T18:15:26.368Z,15.30
2019-05-20T18:17:55.803Z,15.30
2019-05-20T18:20:25.258Z,15.30
2019-05-20T18:22:54.738Z,15.30
2019-05-20T18:25:23.772Z,15.30
2019-05-20T18:27:52.884Z,15.20
2019-05-20T18:30:21.967Z,15.20
2019-05-20T18:32:51.098Z,15.10
2019-05-20T18:35:19.904Z,15.00
2019-05-20T18:37:48.780Z,15.00
2019-05-20T18:40:18.042Z,15.10
2019-05-20T18:42:46.903Z,15.00
2019-05-20T18:45:15.766Z,15.00
2019-05-20T18:47:44.882Z,15.10
2019-05-20T18:50:14.977Z,15.10
2019-05-20T18:52:48.113Z,15.00
2019-05-20T18:55:17.259Z,15.10
2019-05-20T18:57:46.355Z,15.10
2019-05-20T19:00:16.933Z,15.20
2019-05-20T19:02:45.722Z,15.20
2019-05-20T19:05:14.923Z,15.20
2019-05-20T19:07:44.004Z,15.20
2019-05-20T19:10:13.570Z,15.20
2019-05-20T19:12:43.782Z,15.20
2019-05-20T19:15:13.069Z,15.20
2019-05-20T19:17:42.266Z,15.20
2019-05-20T19:20:11.373Z,15.30
2019-05-20T19:22:40.978Z,15.30
2019-05-20T19:25:10.228Z,15.30
2019-05-20T19:27:39.602Z,15.40
2019-05-20T19:30:09.875Z,15.40
2019-05-20T19:32:39.131Z,15.50
2019-05-20T19:35:08.856Z,15.60
2019-05-20T19:37:37.956Z,15.60
2019-05-20T19:40:08.266Z,15.50
2019-05-20T19:42:37.947Z,15.50
2019-05-20T19:45:06.928Z,15.50
2019-05-20T19:47:36.031Z,15.50
2019-05-20T19:50:05.379Z,15.50
2019-05-20T19:52:34.544Z,15.50
2019-05-20T19:55:03.514Z,15.60
2019-05-20T19:57:32.522Z,15.60
2019-05-20T20:00:01.542Z,15.50
2019-05-20T20:02:30.455Z,15.50
2019-05-20T20:04:59.830Z,15.60
2019-05-20T20:07:28.951Z,15.60
2019-05-20T20:09:57.728Z,15.50
2019-05-20T20:12:26.742Z,15.50
2019-05-20T20:14:56.035Z,15.50
2019-05-20T20:17:25.298Z,15.50
2019-05-20T20:19:54.102Z,15.60
2019-05-20T20:22:24.606Z,15.60
2019-05-20T20:24:53.861Z,15.70
2019-05-20T20:27:22.959Z,15.70
2019-05-20T20:29:51.982Z,15.80
2019-05-20T20:32:36.791Z,15.80
2019-05-20T20:34:52.285Z,15.70
2019-05-20T20:37:21.282Z,15.80
2019-05-20T20:39:50.666Z,15.80
2019-05-20T20:42:19.742Z,15.70
2019-05-20T20:44:48.863Z,15.80
2019-05-20T20:47:17.693Z,15.80
2019-05-20T20:49:47.105Z,15.80
2019-05-20T20:52:16.653Z,15.80
2019-05-20T20:54:45.778Z,15.80
2019-05-20T20:57:14.906Z,15.80
2019-05-20T20:59:44.242Z,15.80
2019-05-20T21:02:13.489Z,15.70
2019-05-20T21:04:42.563Z,15.80
2019-05-20T21:07:11.685Z,15.80
2019-05-20T21:09:40.759Z,15.70
2019-05-20T21:12:09.626Z,15.70
2019-05-20T21:14:38.899Z,15.80
2019-05-20T21:17:11.201Z,15.80
2019-05-20T21:19:40.219Z,15.80
2019-05-20T21:22:10.636Z,15.80
2019-05-20T21:24:39.710Z,15.80
2019-05-20T21:27:09.502Z,15.90
2019-05-20T21:29:39.848Z,15.80
2019-05-20T21:32:10.776Z,15.80
2019-05-20T21:34:39.887Z,15.80
2019-05-20T21:37:08.662Z,15.80
2019-05-20T21:39:37.655Z,15.80
2019-05-20T21:42:06.478Z,15.70
2019-05-20T21:44:35.522Z,15.60
2019-05-20T21:47:04.356Z,15.60
2019-05-20T21:49:33.314Z,15.60
2019-05-20T21:52:02.325Z,15.60
2019-05-20T21:54:33.226Z,15.60
2019-05-20T21:57:02.539Z,15.60
2019-05-20T21:59:31.310Z,15.60
2019-05-20T22:02:00.647Z,15.60
2019-05-20T22:04:29.406Z,15.60
2019-05-20T22:06:58.258Z,15.50
2019-05-20T22:09:27.127Z,15.50
2019-05-20T22:11:59.138Z,15.50
2019-05-20T22:14:28.179Z,15.50
2019-05-20T22:16:57.058Z,15.40
2019-05-20T22:19:25.940Z,15.40
2019-05-20T22:22:00.709Z,15.40
2019-05-20T22:24:29.810Z,15.40
2019-05-20T22:26:58.939Z,15.40
2019-05-20T22:29:28.018Z,15.40
2019-05-20T22:31:58.571Z,15.30
2019-05-20T22:34:27.601Z,15.30
2019-05-20T22:36:56.603Z,15.30
2019-05-20T22:39:25.371Z,15.30
2019-05-20T22:41:54.149Z,15.20
2019-05-20T22:44:23.222Z,15.20
2019-05-20T22:46:52.343Z,15.20
2019-05-20T22:49:23.443Z,15.20
2019-05-20T22:51:52.298Z,15.20
2019-05-20T22:54:21.675Z,15.30
2019-05-20T22:56:50.453Z,15.20
2019-05-20T22:59:19.434Z,15.30
2019-05-20T23:01:49.570Z,15.30
2019-05-20T23:04:18.828Z,15.30
2019-05-20T23:06:47.967Z,15.30
2019-05-20T23:09:19.826Z,15.30
2019-05-20T23:11:48.850Z,15.30
2019-05-20T23:14:18.120Z,15.30
2019-05-20T23:16:47.206Z,15.30
2019-05-20T23:19:15.978Z,15.30
2019-05-20T23:21:45.234Z,15.30
2019-05-20T23:24:14.266Z,15.30
2019-05-20T23:26:43.281Z,15.20
2019-05-20T23:29:12.049Z,15.20
2019-05-20T23:31:40.825Z,15.20
2019-05-20T23:34:12.687Z,15.30
2019-05-20T23:36:41.291Z,15.20
2019-05-20T23:39:10.306Z,15.20
2019-05-20T23:41:39.130Z,15.20
2019-05-20T23:44:08.190Z,15.20
2019-05-20T23:46:37.206Z,15.10
2019-05-20T23:49:06.350Z,15.10
2019-05-20T23:51:35.356Z,15.10
2019-05-20T23:54:04.138Z,15.10
2019-05-20T23:56:33.170Z,15.10
2019-05-20T23:59:02.914Z,15.10
